createdAt,value
2018-11-23T00:01:28.649Z,36.40
2018-11-23T00:03:59.043Z,36.33
2018-11-23T00:06:29.504Z,39.67
2018-11-23T00:08:59.779Z,34.30
2018-11-23T00:11:30.193Z,33.80
2018-11-23T00:14:00.542Z,36.00
2018-11-23T00:16:30.845Z,38.07
2018-11-23T00:19:01.106Z,35.30
2018-11-23T00:21:31.483Z,35.03
2018-11-23T00:24:01.942Z,34.10
2018-11-23T00:26:32.216Z,36.67
2018-11-23T00:29:02.593Z,34.80
2018-11-23T00:31:32.961Z,32.77
2018-11-23T00:34:03.345Z,33.93
2018-11-23T00:36:33.851Z,31.90
2018-11-23T00:39:04.482Z,36.50
2018-11-23T00:41:35.007Z,32.20
2018-11-23T00:44:05.848Z,32.20
2018-11-23T00:46:36.055Z,32.43
2018-11-23T00:49:06.548Z,30.90
2018-11-23T00:51:36.951Z,30.87
2018-11-23T00:54:07.254Z,33.93
2018-11-23T00:56:38.289Z,32.43
2018-11-23T00:59:08.511Z,31.90
2018-11-23T01:01:43.941Z,31.27
2018-11-23T01:04:14.294Z,28.50
2018-11-23T01:06:44.613Z,31.00
2018-11-23T01:09:15.807Z,30.90
2018-11-23T01:11:46.187Z,30.43
2018-11-23T01:14:16.536Z,28.77
2018-11-23T01:16:47.127Z,33.33
2018-11-23T01:19:17.313Z,29.57
2018-11-23T01:21:47.668Z,30.00
2018-11-23T01:24:18.092Z,31.80
2018-11-23T01:26:48.433Z,31.13
2018-11-23T01:29:21.561Z,32.40
2018-11-23T01:31:51.948Z,32.60
2018-11-23T01:34:22.404Z,33.00
2018-11-23T01:36:52.712Z,31.40
2018-11-23T01:39:22.916Z,34.63
2018-11-23T01:41:53.346Z,33.33
2018-11-23T01:44:23.826Z,33.53
2018-11-23T01:46:54.082Z,33.13
2018-11-23T01:49:24.556Z,32.40
2018-11-23T01:51:54.828Z,30.43
2018-11-23T01:54:25.295Z,32.70
2018-11-23T01:56:55.543Z,30.23
2018-11-23T01:59:25.825Z,29.10
2018-11-23T02:01:56.349Z,31.23
2018-11-23T02:04:26.713Z,32.00
2018-11-23T02:06:57.107Z,35.73
2018-11-23T02:09:27.497Z,31.47
2018-11-23T02:11:57.867Z,33.20
2018-11-23T02:14:28.183Z,31.77
2018-11-23T02:16:58.479Z,33.73
2018-11-23T02:19:29.443Z,34.10
2018-11-23T02:21:59.676Z,33.40
2018-11-23T02:24:30.019Z,33.93
2018-11-23T02:27:00.490Z,35.97
2018-11-23T02:29:30.830Z,34.97
2018-11-23T02:32:01.040Z,34.07
2018-11-23T02:34:31.353Z,36.90
2018-11-23T02:37:01.556Z,37.73
2018-11-23T02:39:31.837Z,35.70
2018-11-23T02:42:02.060Z,36.27
2018-11-23T02:44:32.502Z,32.73
2018-11-23T02:47:02.982Z,31.93
2018-11-23T02:49:33.564Z,36.03
2018-11-23T02:52:03.971Z,36.37
2018-11-23T02:54:34.300Z,35.57
2018-11-23T02:57:04.632Z,36.70
2018-11-23T02:59:34.963Z,34.53
2018-11-23T03:02:05.367Z,38.83
2018-11-23T03:04:35.707Z,35.27
2018-11-23T03:07:06.121Z,40.00
2018-11-23T03:09:36.481Z,35.83
2018-11-23T03:12:06.842Z,36.03
2018-11-23T03:14:37.213Z,36.57
2018-11-23T03:17:07.788Z,37.07
2018-11-23T03:19:38.183Z,35.00
2018-11-23T03:22:08.551Z,35.07
2018-11-23T03:24:38.730Z,35.07
2018-11-23T03:27:08.943Z,34.43
2018-11-23T03:29:39.296Z,37.57
2018-11-23T03:32:09.675Z,37.33
2018-11-23T03:34:40.130Z,37.47
2018-11-23T03:37:10.563Z,34.57
2018-11-23T03:39:41.050Z,34.10
2018-11-23T03:42:11.559Z,32.87
2018-11-23T03:44:41.908Z,33.37
2018-11-23T03:47:12.342Z,32.10
2018-11-23T03:49:42.880Z,33.37
2018-11-23T03:52:13.127Z,30.93
2018-11-23T03:54:43.534Z,32.27
2018-11-23T03:57:13.829Z,33.80
2018-11-23T03:59:44.439Z,31.30
2018-11-23T04:02:14.648Z,33.20
2018-11-23T04:04:44.946Z,33.50
2018-11-23T04:07:15.353Z,32.70
2018-11-23T04:09:46.356Z,32.83
2018-11-23T04:12:16.599Z,32.90
2018-11-23T04:14:47.002Z,30.70
2018-11-23T04:17:17.260Z,30.10
2018-11-23T04:19:47.836Z,29.93
2018-11-23T04:22:19.225Z,31.30
2018-11-23T04:24:48.595Z,29.20
2018-11-23T04:27:19.071Z,32.80
2018-11-23T04:29:49.642Z,28.30
2018-11-23T04:32:19.869Z,29.60
2018-11-23T04:34:50.310Z,29.63
2018-11-23T04:37:20.797Z,29.90
2018-11-23T04:39:51.179Z,30.73
2018-11-23T04:42:21.297Z,29.60
2018-11-23T04:44:51.794Z,29.60
2018-11-23T04:47:22.185Z,31.37
2018-11-23T04:49:52.431Z,28.80
2018-11-23T04:52:22.712Z,30.03
2018-11-23T04:54:53.167Z,31.47
2018-11-23T04:57:23.584Z,31.50
2018-11-23T04:59:54.197Z,30.80
2018-11-23T05:02:24.424Z,26.53
2018-11-23T05:04:54.861Z,29.47
2018-11-23T05:07:25.184Z,30.50
2018-11-23T05:09:55.488Z,31.30
2018-11-23T05:12:25.839Z,30.13
2018-11-23T05:14:56.308Z,29.27
2018-11-23T05:17:26.600Z,26.43
2018-11-23T05:19:56.955Z,29.87
2018-11-23T05:22:27.449Z,26.50
2018-11-23T05:24:58.017Z,28.37
2018-11-23T05:27:28.170Z,26.90
2018-11-23T05:29:58.557Z,26.00
2018-11-23T05:32:28.956Z,25.17
2018-11-23T05:34:59.716Z,24.37
2018-11-23T05:37:29.960Z,25.83
2018-11-23T05:40:00.309Z,27.53
2018-11-23T05:42:30.775Z,26.10
2018-11-23T05:45:01.134Z,25.97
2018-11-23T05:47:31.273Z,23.60
2018-11-23T05:50:01.725Z,24.17
2018-11-23T05:52:32.066Z,24.40
2018-11-23T05:55:02.316Z,24.33
2018-11-23T05:57:32.786Z,24.50
2018-11-23T06:00:03.064Z,25.10
2018-11-23T06:02:34.116Z,26.70
2018-11-23T06:05:04.567Z,23.50
2018-11-23T06:07:34.873Z,25.43
2018-11-23T06:10:06.442Z,25.40
2018-11-23T06:12:36.687Z,24.67
2018-11-23T06:15:09.213Z,22.93
2018-11-23T06:17:39.503Z,25.50
2018-11-23T06:20:12.940Z,23.27
2018-11-23T06:22:44.013Z,25.97
2018-11-23T06:25:51.573Z,28.60
2018-11-23T06:28:21.765Z,23.10
2018-11-23T06:30:52.130Z,24.30
2018-11-23T06:33:36.851Z,25.30
2018-11-23T06:36:07.315Z,23.63
2018-11-23T06:38:37.527Z,24.13
2018-11-23T06:41:10.481Z,22.47
2018-11-23T06:43:39.391Z,26.30
2018-11-23T06:46:11.838Z,24.23
2018-11-23T06:48:42.408Z,24.20
2018-11-23T06:51:12.741Z,26.87
2018-11-23T06:53:43.043Z,25.40
2018-11-23T06:56:13.573Z,25.97
2018-11-23T06:58:43.985Z,22.47
2018-11-23T07:01:14.509Z,26.77
2018-11-23T07:03:44.830Z,24.07
2018-11-23T07:06:15.306Z,25.60
2018-11-23T07:08:45.467Z,25.17
2018-11-23T07:11:15.942Z,29.10
2018-11-23T07:13:46.339Z,25.67
2018-11-23T07:16:16.659Z,25.43
2018-11-23T07:18:46.980Z,28.07
2018-11-23T07:21:21.444Z,26.87
2018-11-23T07:23:47.646Z,26.43
2018-11-23T07:26:18.104Z,28.20
2018-11-23T07:28:48.522Z,27.00
2018-11-23T07:31:19.100Z,27.23
2018-11-23T07:33:49.448Z,29.40
2018-11-23T07:36:19.769Z,33.70
2018-11-23T07:38:50.030Z,29.20
2018-11-23T07:42:08.161Z,31.50
2018-11-23T07:44:38.579Z,30.17
2018-11-23T07:47:08.921Z,33.40
2018-11-23T07:49:39.110Z,31.20
2018-11-23T07:52:09.652Z,31.57
2018-11-23T07:54:40.444Z,29.37
2018-11-23T07:57:11.092Z,31.20
2018-11-23T07:59:41.448Z,28.83
2018-11-23T08:02:12.882Z,30.97
2018-11-23T08:04:44.013Z,30.43
2018-11-23T08:07:14.368Z,30.60
2018-11-23T08:09:44.892Z,31.30
2018-11-23T08:12:15.450Z,27.67
2018-11-23T08:14:45.604Z,29.53
2018-11-23T08:17:16.096Z,28.13
2018-11-23T08:19:47.395Z,27.57
2018-11-23T08:22:16.970Z,27.60
2018-11-23T08:24:47.251Z,27.23
2018-11-23T08:27:17.559Z,27.63
2018-11-23T08:29:48.016Z,28.27
2018-11-23T08:32:18.348Z,29.30
2018-11-23T08:34:48.756Z,31.57
2018-11-23T08:37:19.056Z,26.80
2018-11-23T08:39:49.410Z,27.60
2018-11-23T08:42:19.885Z,26.17
2018-11-23T08:44:50.163Z,27.57
2018-11-23T08:47:20.377Z,27.10
2018-11-23T08:49:50.856Z,25.47
2018-11-23T08:52:21.025Z,24.10
2018-11-23T08:54:51.308Z,27.20
2018-11-23T08:57:21.739Z,25.90
2018-11-23T08:59:52.103Z,25.73
2018-11-23T09:02:22.343Z,24.90
2018-11-23T09:04:52.823Z,26.47
2018-11-23T09:07:23.229Z,25.00
2018-11-23T09:09:53.817Z,25.50
2018-11-23T09:12:24.274Z,26.00
2018-11-23T09:14:54.540Z,25.30
2018-11-23T09:17:25.006Z,25.97
2018-11-23T09:19:55.343Z,27.50
2018-11-23T09:22:25.878Z,28.27
2018-11-23T09:24:56.182Z,29.60
2018-11-23T09:27:27.348Z,26.80
2018-11-23T09:29:57.539Z,29.80
2018-11-23T09:32:28.013Z,27.73
2018-11-23T09:34:58.540Z,29.30
2018-11-23T09:37:29.048Z,25.97
2018-11-23T09:39:59.209Z,30.20
2018-11-23T09:42:29.685Z,28.30
2018-11-23T09:45:00.108Z,26.43
2018-11-23T09:47:30.460Z,27.90
2018-11-23T09:50:00.642Z,27.30
2018-11-23T09:52:30.967Z,28.13
2018-11-23T09:55:01.324Z,25.10
2018-11-23T09:57:31.556Z,23.67
2018-11-23T10:00:01.787Z,24.53
2018-11-23T10:02:32.008Z,27.70
2018-11-23T10:05:02.348Z,27.83
2018-11-23T10:07:32.731Z,26.33
2018-11-23T10:10:03.080Z,25.07
2018-11-23T10:12:33.344Z,24.67
2018-11-23T10:15:03.698Z,24.97
2018-11-23T10:17:34.220Z,27.27
2018-11-23T10:20:05.111Z,25.83
2018-11-23T10:22:35.732Z,24.80
2018-11-23T10:25:07.092Z,23.40
2018-11-23T10:27:37.646Z,23.90
2018-11-23T10:30:17.096Z,24.00
2018-11-23T10:32:48.445Z,24.90
2018-11-23T10:35:19.100Z,22.80
2018-11-23T10:37:50.875Z,22.30
2018-11-23T10:40:22.977Z,23.00
2018-11-23T10:42:53.353Z,23.60
2018-11-23T10:45:25.548Z,24.10
2018-11-23T10:47:56.445Z,23.87
2018-11-23T10:50:28.382Z,26.17
2018-11-23T10:52:58.902Z,24.20
2018-11-23T10:55:30.764Z,21.43
2018-11-23T10:58:01.054Z,23.00
2018-11-23T11:00:36.565Z,25.27
2018-11-23T11:03:42.230Z,22.13
2018-11-23T11:06:17.521Z,24.47
2018-11-23T11:08:47.875Z,22.00
2018-11-23T11:11:18.215Z,20.43
2018-11-23T11:13:48.575Z,20.13
2018-11-23T11:16:19.071Z,21.20
2018-11-23T11:18:49.539Z,20.20
2018-11-23T11:21:19.947Z,20.77
2018-11-23T11:23:50.224Z,21.40
2018-11-23T11:26:20.601Z,20.10
2018-11-23T11:28:50.958Z,19.53
2018-11-23T11:31:21.398Z,20.80
2018-11-23T11:33:51.789Z,20.37
2018-11-23T11:36:22.067Z,22.60
2018-11-23T11:38:52.430Z,19.53
2018-11-23T11:41:22.941Z,18.70
2018-11-23T11:43:53.276Z,20.13
2018-11-23T11:46:23.577Z,21.27
2018-11-23T11:48:53.988Z,23.37
2018-11-23T11:51:24.352Z,22.73
2018-11-23T11:53:54.691Z,20.17
2018-11-23T11:56:24.985Z,18.30
2018-11-23T11:58:55.407Z,20.77
2018-11-23T12:01:26.921Z,18.60
2018-11-23T12:03:57.970Z,18.03
2018-11-23T12:06:28.211Z,18.00
2018-11-23T12:08:59.195Z,18.20
2018-11-23T12:11:29.709Z,19.50
2018-11-23T12:14:00.100Z,17.40
2018-11-23T12:16:30.602Z,17.60
2018-11-23T12:19:00.818Z,15.43
2018-11-23T12:21:31.193Z,19.07
2018-11-23T12:24:01.668Z,18.17
2018-11-23T12:26:31.776Z,18.03
2018-11-23T12:29:02.211Z,18.30
2018-11-23T12:31:32.359Z,16.93
2018-11-23T12:34:02.761Z,16.83
2018-11-23T12:36:33.152Z,15.20
2018-11-23T12:39:03.512Z,16.63
2018-11-23T12:41:33.933Z,16.27
2018-11-23T12:44:04.363Z,16.37
2018-11-23T12:46:34.522Z,19.57
2018-11-23T12:49:05.352Z,17.17
2018-11-23T12:51:35.792Z,17.00
2018-11-23T12:54:06.696Z,15.67
2018-11-23T12:56:37.109Z,15.17
2018-11-23T12:59:07.503Z,16.20
2018-11-23T13:01:43.264Z,15.87
2018-11-23T13:04:13.726Z,17.93
2018-11-23T13:06:44.223Z,17.53
2018-11-23T13:09:14.730Z,16.90
2018-11-23T13:11:44.979Z,15.90
2018-11-23T13:14:15.460Z,16.67
2018-11-23T13:16:45.796Z,15.57
2018-11-23T13:19:16.333Z,17.37
2018-11-23T13:21:46.708Z,17.03
2018-11-23T13:24:17.230Z,15.30
2018-11-23T13:26:47.494Z,15.10
2018-11-23T13:29:18.104Z,16.67
2018-11-23T13:31:48.349Z,16.07
2018-11-23T13:34:18.669Z,17.30
2018-11-23T13:36:48.946Z,17.67
2018-11-23T13:39:19.351Z,17.43
2018-11-23T13:41:49.589Z,15.87
2018-11-23T13:44:19.999Z,18.00
2018-11-23T13:46:50.336Z,14.77
2018-11-23T13:49:20.850Z,17.90
2018-11-23T13:51:51.175Z,17.20
2018-11-23T13:54:21.545Z,17.67
2018-11-23T13:56:52.413Z,18.23
2018-11-23T13:59:22.814Z,18.67
2018-11-23T14:01:53.305Z,15.57
2018-11-23T14:04:23.874Z,18.57
2018-11-23T14:06:54.030Z,16.10
2018-11-23T14:09:24.926Z,15.93
2018-11-23T14:11:55.244Z,15.70
2018-11-23T14:14:25.507Z,14.60
2018-11-23T14:16:55.901Z,18.00
2018-11-23T14:19:26.231Z,16.63
2018-11-23T14:21:56.685Z,17.03
2018-11-23T14:24:27.214Z,15.33
2018-11-23T14:26:57.595Z,16.13
2018-11-23T14:29:28.065Z,14.63
2018-11-23T14:31:58.454Z,16.63
2018-11-23T14:34:28.991Z,15.20
2018-11-23T14:36:59.239Z,15.47
2018-11-23T14:39:29.755Z,15.77
2018-11-23T14:42:00.169Z,14.77
2018-11-23T14:44:30.321Z,19.37
2018-11-23T14:47:00.777Z,16.53
2018-11-23T14:49:31.232Z,17.10
2018-11-23T14:52:02.252Z,19.20
2018-11-23T14:54:32.657Z,18.67
2018-11-23T14:57:03.030Z,17.40
2018-11-23T14:59:33.252Z,20.20
2018-11-23T15:02:04.211Z,17.97
2018-11-23T15:04:34.515Z,17.40
2018-11-23T15:07:05.002Z,19.73
2018-11-23T15:09:35.525Z,19.40
2018-11-23T15:12:06.102Z,20.53
2018-11-23T15:14:36.648Z,19.87
2018-11-23T15:17:07.024Z,18.30
2018-11-23T15:19:37.280Z,18.10
2018-11-23T15:22:07.843Z,17.70
2018-11-23T15:24:38.244Z,18.63
2018-11-23T15:27:08.746Z,17.00
2018-11-23T15:29:39.117Z,18.73
2018-11-23T15:32:09.464Z,20.80
2018-11-23T15:34:39.873Z,19.00
2018-11-23T15:37:10.498Z,18.17
2018-11-23T15:39:40.802Z,16.83
2018-11-23T15:42:11.074Z,15.53
2018-11-23T15:44:41.477Z,17.10
2018-11-23T15:47:11.861Z,17.53
2018-11-23T15:49:42.240Z,17.80
2018-11-23T15:52:33.605Z,19.87
2018-11-23T15:55:06.317Z,18.67
2018-11-23T15:57:36.725Z,18.03
2018-11-23T16:00:14.430Z,16.90
2018-11-23T16:02:45.537Z,15.70
2018-11-23T16:05:15.992Z,18.40
2018-11-23T16:07:46.523Z,21.73
2018-11-23T16:10:23.352Z,18.87
2018-11-23T16:12:54.857Z,24.77
2018-11-23T16:15:26.079Z,18.47
2018-11-23T16:17:57.021Z,17.77
2018-11-23T16:20:30.143Z,16.50
2018-11-23T16:23:02.788Z,18.57
2018-11-23T16:25:32.957Z,18.03
2018-11-23T16:28:04.634Z,19.10
2018-11-23T16:30:37.496Z,19.27
2018-11-23T16:33:09.380Z,18.40
2018-11-23T16:35:40.490Z,20.63
2018-11-23T16:38:12.966Z,18.90
2018-11-23T16:40:44.983Z,19.07
2018-11-23T16:43:16.109Z,17.50
2018-11-23T16:45:46.957Z,18.90
2018-11-23T16:48:18.198Z,18.03
2018-11-23T16:50:48.579Z,19.57
2018-11-23T16:53:18.733Z,18.40
2018-11-23T16:55:48.973Z,17.63
2018-11-23T16:58:19.349Z,17.57
2018-11-23T17:00:49.832Z,15.97
2018-11-23T17:03:21.361Z,17.13
2018-11-23T17:05:53.952Z,19.27
2018-11-23T17:08:24.340Z,18.93
2018-11-23T17:10:54.784Z,21.17
2018-11-23T17:13:25.357Z,21.73
2018-11-23T17:15:55.550Z,20.07
2018-11-23T17:18:26.069Z,20.70
2018-11-23T17:20:59.291Z,19.83
2018-11-23T17:23:29.259Z,21.23
2018-11-23T17:26:01.148Z,20.80
2018-11-23T17:28:55.917Z,21.10
2018-11-23T17:31:48.819Z,21.07
2018-11-23T17:34:36.200Z,21.57
2018-11-23T17:37:35.318Z,21.87
2018-11-23T17:40:35.995Z,22.50
2018-11-23T17:43:28.924Z,21.90
2018-11-23T17:46:25.782Z,22.77
2018-11-23T17:49:23.907Z,20.73
2018-11-23T17:52:10.903Z,24.13
2018-11-23T17:54:48.140Z,24.00
2018-11-23T17:57:44.054Z,23.30
2018-11-23T18:00:45.519Z,22.07
2018-11-23T18:03:45.540Z,23.40
2018-11-23T18:06:37.198Z,24.20
2018-11-23T18:09:32.721Z,24.80
2018-11-23T18:12:26.912Z,24.43
2018-11-23T18:15:26.685Z,33.53
2018-11-23T18:18:21.111Z,27.90
2018-11-23T18:21:19.657Z,27.67
2018-11-23T18:24:14.158Z,25.00
2018-11-23T18:27:15.869Z,23.73
2018-11-23T18:30:12.693Z,25.60
2018-11-23T18:32:43.912Z,24.10
2018-11-23T18:35:15.076Z,24.10
2018-11-23T18:37:45.510Z,24.63
2018-11-23T18:40:16.052Z,25.67
2018-11-23T18:42:46.577Z,27.60
2018-11-23T18:45:16.862Z,26.30
2018-11-23T18:47:47.119Z,26.60
2018-11-23T18:50:19.220Z,25.70
2018-11-23T18:52:49.461Z,26.50
2018-11-23T18:55:20.060Z,25.47
2018-11-23T18:57:50.445Z,27.30
2018-11-23T19:00:20.819Z,24.90
2018-11-23T19:02:51.064Z,26.00
2018-11-23T19:05:23.731Z,24.43
2018-11-23T19:07:54.225Z,27.37
2018-11-23T19:10:24.686Z,24.43
2018-11-23T19:12:54.986Z,29.40
2018-11-23T19:15:29.542Z,26.03
2018-11-23T19:18:03.617Z,30.97
2018-11-23T19:20:36.845Z,26.47
2018-11-23T19:23:11.080Z,23.73
2018-11-23T19:25:46.392Z,23.30
2018-11-23T19:28:19.196Z,23.47
2018-11-23T19:30:52.248Z,26.10
2018-11-23T19:33:25.999Z,23.03
2018-11-23T19:35:59.477Z,24.63
2018-11-23T19:38:33.382Z,25.60
2018-11-23T19:41:04.961Z,27.77
2018-11-23T19:43:35.414Z,29.90
2018-11-23T19:46:09.533Z,30.17
2018-11-23T19:48:45.584Z,27.93
2018-11-23T19:51:16.424Z,27.00
2018-11-23T19:53:49.932Z,28.63
2018-11-23T19:56:22.306Z,30.80
2018-11-23T19:58:52.582Z,27.87
2018-11-23T20:01:23.084Z,27.50
2018-11-23T20:03:53.380Z,25.93
2018-11-23T20:06:23.695Z,25.77
2018-11-23T20:08:54.120Z,22.73
2018-11-23T20:11:24.568Z,24.47
2018-11-23T20:13:55.015Z,26.80
2018-11-23T20:16:26.343Z,25.53
2018-11-23T20:18:56.675Z,28.60
2018-11-23T20:21:27.027Z,27.60
2018-11-23T20:23:57.337Z,26.93
2018-11-23T20:26:27.922Z,25.50
2018-11-23T20:28:58.306Z,27.63
2018-11-23T20:31:28.475Z,28.43
2018-11-23T20:33:58.911Z,27.80
2018-11-23T20:36:29.599Z,28.77
2018-11-23T20:38:59.857Z,26.57
2018-11-23T20:41:30.287Z,29.70
2018-11-23T20:44:00.590Z,29.80
2018-11-23T20:46:30.944Z,29.30
2018-11-23T20:49:01.259Z,27.40
2018-11-23T20:51:31.664Z,27.93
2018-11-23T20:54:01.876Z,27.57
2018-11-23T20:56:32.271Z,30.73
2018-11-23T20:59:02.696Z,28.33
2018-11-23T21:01:33.357Z,29.23
2018-11-23T21:04:03.889Z,29.77
2018-11-23T21:06:34.169Z,28.17
2018-11-23T21:09:06.672Z,29.00
2018-11-23T21:11:37.007Z,27.33
2018-11-23T21:14:07.691Z,27.23
2018-11-23T21:16:38.219Z,29.57
2018-11-23T21:19:08.646Z,29.97
2018-11-23T21:21:38.912Z,27.57
2018-11-23T21:24:09.277Z,27.50
2018-11-23T21:26:39.769Z,30.83
2018-11-23T21:29:10.285Z,30.43
2018-11-23T21:31:40.513Z,30.80
2018-11-23T21:34:10.901Z,29.17
2018-11-23T21:36:41.481Z,29.87
2018-11-23T21:39:13.680Z,30.93
2018-11-23T21:41:43.044Z,29.60
2018-11-23T21:44:13.592Z,29.80
2018-11-23T21:46:44.197Z,30.43
2018-11-23T21:49:14.487Z,30.57
2018-11-23T21:51:45.399Z,30.80
2018-11-23T21:54:15.787Z,27.23
2018-11-23T21:56:46.224Z,29.27
2018-11-23T21:59:16.868Z,28.23
2018-11-23T22:01:47.418Z,28.70
2018-11-23T22:04:17.842Z,28.67
2018-11-23T22:06:48.748Z,27.90
2018-11-23T22:09:19.211Z,33.60
2018-11-23T22:11:52.474Z,30.00
2018-11-23T22:14:25.218Z,30.53
2018-11-23T22:16:55.892Z,32.87
2018-11-23T22:19:26.525Z,30.97
2018-11-23T22:21:56.871Z,30.43
2018-11-23T22:24:27.301Z,31.60
2018-11-23T22:26:57.878Z,30.87
2018-11-23T22:29:28.114Z,31.27
2018-11-23T22:31:58.395Z,30.27
2018-11-23T22:34:28.836Z,32.13
2018-11-23T22:36:59.024Z,33.57
2018-11-23T22:39:29.350Z,30.63
2018-11-23T22:41:59.843Z,29.70
2018-11-23T22:44:30.011Z,31.50
2018-11-23T22:47:06.309Z,29.03
2018-11-23T22:49:37.391Z,30.63
2018-11-23T22:52:07.782Z,31.13
2018-11-23T22:54:38.219Z,32.10
2018-11-23T22:57:11.829Z,31.63
2018-11-23T22:59:39.014Z,29.03
2018-11-23T23:02:29.996Z,32.60
2018-11-23T23:05:25.009Z,30.73
2018-11-23T23:08:23.623Z,29.53
2018-11-23T23:11:13.359Z,33.17
2018-11-23T23:14:16.565Z,29.87
2018-11-23T23:17:11.505Z,28.37
2018-11-23T23:20:16.152Z,32.70
2018-11-23T23:23:18.316Z,31.90
2018-11-23T23:26:10.607Z,33.30
2018-11-23T23:29:11.436Z,33.53
2018-11-23T23:32:06.983Z,33.20
2018-11-23T23:34:56.980Z,35.90
2018-11-23T23:37:53.142Z,33.93
2018-11-23T23:40:53.860Z,29.37
2018-11-23T23:43:52.247Z,30.23
2018-11-23T23:46:52.611Z,29.20
2018-11-23T23:49:52.356Z,28.00
2018-11-23T23:52:55.871Z,29.53
2018-11-23T23:55:52.125Z,29.27
2018-11-23T23:58:48.024Z,27.77
